sensor_id;sensor_type;location;lat;lon;timestamp;pressure;altitude;pressure_sealevel;temperature
68440;BMP180;55421;51.600;5.718;2022-09-02T00:01:39;224067.80;;;17.10
68440;BMP180;55421;51.600;5.718;2022-09-02T00:04:11;224056.41;;;17.10
68440;BMP180;55421;51.600;5.718;2022-09-02T00:06:41;224054.80;;;17.10
68440;BMP180;55421;51.600;5.718;2022-09-02T00:09:12;224053.20;;;17.10
68440;BMP180;55421;51.600;5.718;2022-09-02T00:11:42;224059.59;;;17.10
68440;BMP180;55421;51.600;5.718;2022-09-02T00:14:15;224054.80;;;17.10
68440;BMP180;55421;51.600;5.718;2022-09-02T00:16:42;224043.59;;;17.10
68440;BMP180;55421;51.600;5.718;2022-09-02T00:19:10;224037.20;;;17.10
68440;BMP180;55421;51.600;5.718;2022-09-02T00:21:36;224042.00;;;17.10
68440;BMP180;55421;51.600;5.718;2022-09-02T00:24:04;224036.00;;;17.10
68440;BMP180;55421;51.600;5.718;2022-09-02T00:26:31;224022.80;;;17.10
68440;BMP180;55421;51.600;5.718;2022-09-02T00:28:58;224010.41;;;17.02
68440;BMP180;55421;51.600;5.718;2022-09-02T00:31:25;224004.00;;;17.00
68440;BMP180;55421;51.600;5.718;2022-09-02T00:33:52;223991.20;;;17.00
68440;BMP180;55421;51.600;5.718;2022-09-02T00:36:19;223968.41;;;17.00
68440;BMP180;55421;51.600;5.718;2022-09-02T00:38:46;223954.80;;;16.90
68440;BMP180;55421;51.600;5.718;2022-09-02T00:41:13;223938.00;;;16.90
68440;BMP180;55421;51.600;5.718;2022-09-02T00:44:04;223923.41;;;16.90
68440;BMP180;55421;51.600;5.718;2022-09-02T00:46:32;223904.59;;;16.90
68440;BMP180;55421;51.600;5.718;2022-09-02T00:49:17;223890.41;;;16.80
68440;BMP180;55421;51.600;5.718;2022-09-02T00:54:29;223850.80;;;16.72
68440;BMP180;55421;51.600;5.718;2022-09-02T00:56:56;223834.41;;;16.70
68440;BMP180;55421;51.600;5.718;2022-09-02T00:59:45;223824.00;;;16.70
68440;BMP180;55421;51.600;5.718;2022-09-02T01:02:14;223811.20;;;16.70
68440;BMP180;55421;51.600;5.718;2022-09-02T01:04:41;223792.00;;;16.62
68440;BMP180;55421;51.600;5.718;2022-09-02T01:07:08;223778.41;;;16.60
68440;BMP180;55421;51.600;5.718;2022-09-02T01:09:34;223757.00;;;16.60
68440;BMP180;55421;51.600;5.718;2022-09-02T01:12:01;223729.41;;;16.50
68440;BMP180;55421;51.600;5.718;2022-09-02T01:14:29;223707.41;;;16.50
68440;BMP180;55421;51.600;5.718;2022-09-02T01:16:59;223691.41;;;16.50
68440;BMP180;55421;51.600;5.718;2022-09-02T01:19:36;223671.41;;;16.40
68440;BMP180;55421;51.600;5.718;2022-09-02T01:22:24;223649.00;;;16.40
68440;BMP180;55421;51.600;5.718;2022-09-02T01:24:52;223623.59;;;16.40
68440;BMP180;55421;51.600;5.718;2022-09-02T01:27:22;223604.80;;;16.30
68440;BMP180;55421;51.600;5.718;2022-09-02T01:29:56;223581.41;;;16.30
68440;BMP180;55421;51.600;5.718;2022-09-02T01:32:25;223563.80;;;16.22
68440;BMP180;55421;51.600;5.718;2022-09-02T01:34:53;223542.20;;;16.20
68440;BMP180;55421;51.600;5.718;2022-09-02T01:37:20;223532.59;;;16.20
68440;BMP180;55421;51.600;5.718;2022-09-02T01:39:48;223513.80;;;16.16
68440;BMP180;55421;51.600;5.718;2022-09-02T01:42:15;223494.59;;;16.10
68440;BMP180;55421;51.600;5.718;2022-09-02T01:44:42;223479.00;;;16.10
68440;BMP180;55421;51.600;5.718;2022-09-02T01:47:22;223467.80;;;16.10
68440;BMP180;55421;51.600;5.718;2022-09-02T01:49:50;223447.20;;;16.00
68440;BMP180;55421;51.600;5.718;2022-09-02T01:52:19;223432.41;;;16.00
68440;BMP180;55421;51.600;5.718;2022-09-02T01:54:47;223424.80;;;16.00
68440;BMP180;55421;51.600;5.718;2022-09-02T01:57:13;223409.20;;;16.00
68440;BMP180;55421;51.600;5.718;2022-09-02T01:59:40;223389.59;;;15.90
68440;BMP180;55421;51.600;5.718;2022-09-02T02:02:09;223369.59;;;15.90
68440;BMP180;55421;51.600;5.718;2022-09-02T02:04:36;223346.59;;;15.90
68440;BMP180;55421;51.600;5.718;2022-09-02T02:07:03;223323.00;;;15.80
68440;BMP180;55421;51.600;5.718;2022-09-02T02:09:30;223307.80;;;15.80
68440;BMP180;55421;51.600;5.718;2022-09-02T02:11:56;223292.00;;;15.80
68440;BMP180;55421;51.600;5.718;2022-09-02T02:14:23;223279.59;;;15.72
68440;BMP180;55421;51.600;5.718;2022-09-02T02:16:50;223263.59;;;15.70
68440;BMP180;55421;51.600;5.718;2022-09-02T02:19:16;223256.00;;;15.70
68440;BMP180;55421;51.600;5.718;2022-09-02T02:21:42;223237.20;;;15.70
68440;BMP180;55421;51.600;5.718;2022-09-02T02:24:09;223219.59;;;15.62
68440;BMP180;55421;51.600;5.718;2022-09-02T02:26:36;223202.00;;;15.60
68440;BMP180;55421;51.600;5.718;2022-09-02T02:29:03;223180.00;;;15.60
68440;BMP180;55421;51.600;5.718;2022-09-02T02:31:30;223173.59;;;15.56
68440;BMP180;55421;51.600;5.718;2022-09-02T02:33:56;223171.20;;;15.50
68440;BMP180;55421;51.600;5.718;2022-09-02T02:36:23;223164.41;;;15.50
68440;BMP180;55421;51.600;5.718;2022-09-02T02:38:49;223139.20;;;15.50
68440;BMP180;55421;51.600;5.718;2022-09-02T02:41:15;223131.80;;;15.50
68440;BMP180;55421;51.600;5.718;2022-09-02T02:43:42;223123.41;;;15.50
68440;BMP180;55421;51.600;5.718;2022-09-02T02:46:09;223102.00;;;15.40
68440;BMP180;55421;51.600;5.718;2022-09-02T02:48:37;223094.80;;;15.40
68440;BMP180;55421;51.600;5.718;2022-09-02T02:51:04;223079.20;;;15.40
68440;BMP180;55421;51.600;5.718;2022-09-02T02:53:33;223065.20;;;15.40
68440;BMP180;55421;51.600;5.718;2022-09-02T02:56:03;223046.00;;;15.30
68440;BMP180;55421;51.600;5.718;2022-09-02T02:58:30;223017.20;;;15.30
68440;BMP180;55421;51.600;5.718;2022-09-02T03:00:58;223006.41;;;15.28
68440;BMP180;55421;51.600;5.718;2022-09-02T03:03:28;222980.41;;;15.20
68440;BMP180;55421;51.600;5.718;2022-09-02T03:05:56;222965.00;;;15.20
68440;BMP180;55421;51.600;5.718;2022-09-02T03:08:23;222954.59;;;15.20
68440;BMP180;55421;51.600;5.718;2022-09-02T03:10:54;222943.00;;;15.12
68440;BMP180;55421;51.600;5.718;2022-09-02T03:13:23;222939.80;;;15.10
68440;BMP180;55421;51.600;5.718;2022-09-02T03:15:50;222898.20;;;15.10
68440;BMP180;55421;51.600;5.718;2022-09-02T03:18:18;222889.00;;;15.04
68440;BMP180;55421;51.600;5.718;2022-09-02T03:20:44;222889.00;;;15.10
68440;BMP180;55421;51.600;5.718;2022-09-02T03:23:12;222877.80;;;15.00
68440;BMP180;55421;51.600;5.718;2022-09-02T03:25:42;222891.80;;;15.10
68440;BMP180;55421;51.600;5.718;2022-09-02T03:28:10;222881.00;;;15.00
68440;BMP180;55421;51.600;5.718;2022-09-02T03:30:39;222842.80;;;15.00
68440;BMP180;55421;51.600;5.718;2022-09-02T03:33:06;222797.80;;;14.90
68440;BMP180;55421;51.600;5.718;2022-09-02T03:35:41;222796.20;;;14.90
68440;BMP180;55421;51.600;5.718;2022-09-02T03:38:10;222781.41;;;14.84
68440;BMP180;55421;51.600;5.718;2022-09-02T03:40:38;222766.59;;;14.80
68440;BMP180;55421;51.600;5.718;2022-09-02T03:43:05;222767.80;;;14.80
68440;BMP180;55421;51.600;5.718;2022-09-02T03:45:31;222762.20;;;14.80
68440;BMP180;55421;51.600;5.718;2022-09-02T03:47:58;222744.20;;;14.80
68440;BMP180;55421;51.600;5.718;2022-09-02T03:50:33;222744.20;;;14.80
68440;BMP180;55421;51.600;5.718;2022-09-02T03:53:00;222753.80;;;14.80
68440;BMP180;55421;51.600;5.718;2022-09-02T03:55:27;222750.59;;;14.80
68440;BMP180;55421;51.600;5.718;2022-09-02T03:57:54;222749.00;;;14.80
68440;BMP180;55421;51.600;5.718;2022-09-02T04:00:24;222736.20;;;14.80
68440;BMP180;55421;51.600;5.718;2022-09-02T04:02:51;222733.00;;;14.80
68440;BMP180;55421;51.600;5.718;2022-09-02T04:05:17;222719.00;;;14.76
68440;BMP180;55421;51.600;5.718;2022-09-02T04:07:44;222714.59;;;14.70
68440;BMP180;55421;51.600;5.718;2022-09-02T04:10:11;222719.41;;;14.74
68440;BMP180;55421;51.600;5.718;2022-09-02T04:12:38;222716.20;;;14.70
68440;BMP180;55421;51.600;5.718;2022-09-02T04:15:08;222721.41;;;14.76
68440;BMP180;55421;51.600;5.718;2022-09-02T04:17:37;222725.80;;;14.80
68440;BMP180;55421;51.600;5.718;2022-09-02T04:20:08;222734.59;;;14.80
68440;BMP180;55421;51.600;5.718;2022-09-02T04:22:35;222739.41;;;14.80
68440;BMP180;55421;51.600;5.718;2022-09-02T04:25:04;222744.20;;;14.80
68440;BMP180;55421;51.600;5.718;2022-09-02T04:27:32;222750.59;;;14.80
68440;BMP180;55421;51.600;5.718;2022-09-02T04:29:59;222755.41;;;14.80
68440;BMP180;55421;51.600;5.718;2022-09-02T04:32:25;222767.80;;;14.80
68440;BMP180;55421;51.600;5.718;2022-09-02T04:34:52;222775.41;;;14.82
68440;BMP180;55421;51.600;5.718;2022-09-02T04:37:18;222791.80;;;14.90
68440;BMP180;55421;51.600;5.718;2022-09-02T04:39:45;222805.00;;;14.90
68440;BMP180;55421;51.600;5.718;2022-09-02T04:42:12;222806.20;;;14.90
68440;BMP180;55421;51.600;5.718;2022-09-02T04:44:38;222816.20;;;14.90
68440;BMP180;55421;51.600;5.718;2022-09-02T04:47:05;222829.20;;;14.94
68440;BMP180;55421;51.600;5.718;2022-09-02T04:49:31;222838.80;;;15.00
68440;BMP180;55421;51.600;5.718;2022-09-02T04:51:59;222847.59;;;15.00
68440;BMP180;55421;51.600;5.718;2022-09-02T04:54:26;222857.80;;;15.00
68440;BMP180;55421;51.600;5.718;2022-09-02T04:56:52;222876.20;;;15.00
68440;BMP180;55421;51.600;5.718;2022-09-02T04:59:19;222889.00;;;15.04
68440;BMP180;55421;51.600;5.718;2022-09-02T05:01:46;222882.20;;;15.00
68440;BMP180;55421;51.600;5.718;2022-09-02T05:04:13;222887.00;;;15.04
68440;BMP180;55421;51.600;5.718;2022-09-02T05:06:39;222891.41;;;15.10
68440;BMP180;55421;51.600;5.718;2022-09-02T05:09:06;222903.41;;;15.10
68440;BMP180;55421;51.600;5.718;2022-09-02T05:11:34;222907.41;;;15.10
68440;BMP180;55421;51.600;5.718;2022-09-02T05:14:05;222923.80;;;15.10
68440;BMP180;55421;51.600;5.718;2022-09-02T05:16:38;222939.80;;;15.12
68440;BMP180;55421;51.600;5.718;2022-09-02T05:19:07;222965.00;;;15.20
68440;BMP180;55421;51.600;5.718;2022-09-02T05:21:41;222986.80;;;15.20
68440;BMP180;55421;51.600;5.718;2022-09-02T05:24:08;222998.80;;;15.24
68440;BMP180;55421;51.600;5.718;2022-09-02T05:26:35;223016.00;;;15.30
68440;BMP180;55421;51.600;5.718;2022-09-02T05:29:03;223028.00;;;15.30
68440;BMP180;55421;51.600;5.718;2022-09-02T05:31:32;223044.41;;;15.30
68440;BMP180;55421;51.600;5.718;2022-09-02T05:33:58;223065.20;;;15.38
68440;BMP180;55421;51.600;5.718;2022-09-02T05:36:25;223082.41;;;15.40
68440;BMP180;55421;51.600;5.718;2022-09-02T05:38:51;223094.80;;;15.40
68440;BMP180;55421;51.600;5.718;2022-09-02T05:41:21;223116.59;;;15.50
68440;BMP180;55421;51.600;5.718;2022-09-02T05:43:52;223142.59;;;15.50
68440;BMP180;55421;51.600;5.718;2022-09-02T05:46:22;223158.00;;;15.50
68440;BMP180;55421;51.600;5.718;2022-09-02T05:48:50;223172.80;;;15.50
68440;BMP180;55421;51.600;5.718;2022-09-02T05:51:55;223184.41;;;15.60
68440;BMP180;55421;51.600;5.718;2022-09-02T05:54:28;223198.80;;;15.60
68440;BMP180;55421;51.600;5.718;2022-09-02T05:57:00;223218.00;;;15.60
68440;BMP180;55421;51.600;5.718;2022-09-02T05:59:28;223228.80;;;15.68
68440;BMP180;55421;51.600;5.718;2022-09-02T06:01:57;223241.59;;;15.70
68440;BMP180;55421;51.600;5.718;2022-09-02T06:04:24;223246.41;;;15.70
68440;BMP180;55421;51.600;5.718;2022-09-02T06:06:51;223257.59;;;15.70
68440;BMP180;55421;51.600;5.718;2022-09-02T06:09:21;223256.00;;;15.70
68440;BMP180;55421;51.600;5.718;2022-09-02T06:11:50;223264.00;;;15.70
68440;BMP180;55421;51.600;5.718;2022-09-02T06:14:21;223276.80;;;15.70
68440;BMP180;55421;51.600;5.718;2022-09-02T06:16:51;223298.00;;;15.80
68440;BMP180;55421;51.600;5.718;2022-09-02T06:19:21;223313.41;;;15.80
68440;BMP180;55421;51.600;5.718;2022-09-02T06:21:48;223341.80;;;15.84
68440;BMP180;55421;51.600;5.718;2022-09-02T06:24:15;223350.59;;;15.90
68440;BMP180;55421;51.600;5.718;2022-09-02T06:26:42;223365.80;;;15.90
68440;BMP180;55421;51.600;5.718;2022-09-02T06:29:09;223385.80;;;15.90
68440;BMP180;55421;51.600;5.718;2022-09-02T06:31:38;223397.20;;;15.94
68440;BMP180;55421;51.600;5.718;2022-09-02T06:34:05;223413.20;;;16.00
68440;BMP180;55421;51.600;5.718;2022-09-02T06:36:32;223432.41;;;16.00
68440;BMP180;55421;51.600;5.718;2022-09-02T06:38:59;223454.20;;;16.00
68440;BMP180;55421;51.600;5.718;2022-09-02T06:41:30;223472.59;;;16.10
68440;BMP180;55421;51.600;5.718;2022-09-02T06:44:01;223487.41;;;16.10
68440;BMP180;55421;51.600;5.718;2022-09-02T06:46:36;223509.00;;;16.10
68440;BMP180;55421;51.600;5.718;2022-09-02T06:49:06;223529.80;;;16.20
68440;BMP180;55421;51.600;5.718;2022-09-02T06:51:40;223548.59;;;16.20
68440;BMP180;55421;51.600;5.718;2022-09-02T06:54:11;223571.00;;;16.30
68440;BMP180;55421;51.600;5.718;2022-09-02T06:56:38;223593.00;;;16.30
68440;BMP180;55421;51.600;5.718;2022-09-02T06:59:06;223615.20;;;16.30
68440;BMP180;55421;51.600;5.718;2022-09-02T07:01:33;223635.20;;;16.40
68440;BMP180;55421;51.600;5.718;2022-09-02T07:04:00;223663.41;;;16.40
68440;BMP180;55421;51.600;5.718;2022-09-02T07:06:50;223701.41;;;16.50
68440;BMP180;55421;51.600;5.718;2022-09-02T07:09:22;223727.80;;;16.50
68440;BMP180;55421;51.600;5.718;2022-09-02T07:11:49;223759.59;;;16.60
68440;BMP180;55421;51.600;5.718;2022-09-02T07:14:19;223798.80;;;16.68
68440;BMP180;55421;51.600;5.718;2022-09-02T07:16:49;223837.59;;;16.70
68440;BMP180;55421;51.600;5.718;2022-09-02T07:19:18;223871.59;;;16.80
68440;BMP180;55421;51.600;5.718;2022-09-02T07:21:46;223916.20;;;16.88
68440;BMP180;55421;51.600;5.718;2022-09-02T07:24:14;223965.20;;;16.96
68440;BMP180;55421;51.600;5.718;2022-09-02T07:26:41;224017.20;;;17.08
68440;BMP180;55421;51.600;5.718;2022-09-02T07:29:10;224056.41;;;17.10
68440;BMP180;55421;51.600;5.718;2022-09-02T07:31:40;224097.80;;;17.20
68440;BMP180;55421;51.600;5.718;2022-09-02T07:34:07;224147.00;;;17.30
68440;BMP180;55421;51.600;5.718;2022-09-02T07:36:36;224199.59;;;17.40
68440;BMP180;55421;51.600;5.718;2022-09-02T07:39:05;224249.41;;;17.48
68440;BMP180;55421;51.600;5.718;2022-09-02T07:41:33;224299.00;;;17.54
68440;BMP180;55421;51.600;5.718;2022-09-02T07:44:00;224344.59;;;17.60
68440;BMP180;55421;51.600;5.718;2022-09-02T07:46:27;224389.59;;;17.70
68440;BMP180;55421;51.600;5.718;2022-09-02T07:49:04;224439.00;;;17.80
68440;BMP180;55421;51.600;5.718;2022-09-02T07:51:34;224485.00;;;17.90
68440;BMP180;55421;51.600;5.718;2022-09-02T07:54:02;224524.59;;;17.98
68440;BMP180;55421;51.600;5.718;2022-09-02T07:56:30;224586.41;;;18.00
68440;BMP180;55421;51.600;5.718;2022-09-02T07:58:57;224635.59;;;18.14
68440;BMP180;55421;51.600;5.718;2022-09-02T08:01:24;224699.41;;;18.22
68440;BMP180;55421;51.600;5.718;2022-09-02T08:03:51;224756.00;;;18.34
68440;BMP180;55421;51.600;5.718;2022-09-02T08:06:19;224808.41;;;18.46
68440;BMP180;55421;51.600;5.718;2022-09-02T08:08:46;224867.80;;;18.56
68440;BMP180;55421;51.600;5.718;2022-09-02T08:11:12;224929.41;;;18.70
68440;BMP180;55421;51.600;5.718;2022-09-02T08:13:39;225000.41;;;18.80
68440;BMP180;55421;51.600;5.718;2022-09-02T08:16:06;225060.59;;;18.90
68440;BMP180;55421;51.600;5.718;2022-09-02T08:18:33;225129.41;;;19.00
68440;BMP180;55421;51.600;5.718;2022-09-02T08:21:00;225211.80;;;19.20
68440;BMP180;55421;51.600;5.718;2022-09-02T08:23:27;225296.59;;;19.30
68440;BMP180;55421;51.600;5.718;2022-09-02T08:25:53;225384.00;;;19.50
68440;BMP180;55421;51.600;5.718;2022-09-02T08:28:20;225475.00;;;19.60
68440;BMP180;55421;51.600;5.718;2022-09-02T08:30:46;225560.00;;;19.80
68440;BMP180;55421;51.600;5.718;2022-09-02T08:33:12;225638.80;;;19.90
68440;BMP180;55421;51.600;5.718;2022-09-02T08:35:39;225765.59;;;20.10
68440;BMP180;55421;51.600;5.718;2022-09-02T08:38:05;225845.41;;;20.30
68440;BMP180;55421;51.600;5.718;2022-09-02T08:40:39;225903.00;;;20.40
68440;BMP180;55421;51.600;5.718;2022-09-02T08:43:34;225962.00;;;20.50
68440;BMP180;55421;51.600;5.718;2022-09-02T08:46:09;226035.41;;;20.60
68440;BMP180;55421;51.600;5.718;2022-09-02T08:48:56;226085.80;;;20.70
68440;BMP180;55421;51.600;5.718;2022-09-02T08:51:43;226109.00;;;20.78
68440;BMP180;55421;51.600;5.718;2022-09-02T08:54:26;226157.20;;;20.80
68440;BMP180;55421;51.600;5.718;2022-09-02T08:56:55;226243.41;;;21.00
68440;BMP180;55421;51.600;5.718;2022-09-02T08:59:25;226308.20;;;21.10
68440;BMP180;55421;51.600;5.718;2022-09-02T09:02:15;226339.59;;;21.20
68440;BMP180;55421;51.600;5.718;2022-09-02T09:08:05;226580.41;;;21.60
68440;BMP180;55421;51.600;5.718;2022-09-02T09:13:51;226791.41;;;21.94
68440;BMP180;55421;51.600;5.718;2022-09-02T09:16:47;226877.80;;;22.10
68440;BMP180;55421;51.600;5.718;2022-09-02T09:19:50;226985.20;;;22.30
68440;BMP180;55421;51.600;5.718;2022-09-02T09:22:25;227117.00;;;22.52
68440;BMP180;55421;51.600;5.718;2022-09-02T09:24:56;227172.41;;;22.60
68440;BMP180;55421;51.600;5.718;2022-09-02T09:27:23;227218.80;;;22.70
68440;BMP180;55421;51.600;5.718;2022-09-02T09:29:51;227207.59;;;22.70
68440;BMP180;55421;51.600;5.718;2022-09-02T09:32:30;227215.59;;;22.70
68440;BMP180;55421;51.600;5.718;2022-09-02T09:35:08;227204.41;;;22.70
68440;BMP180;55421;51.600;5.718;2022-09-02T09:37:47;227218.80;;;22.70
68440;BMP180;55421;51.600;5.718;2022-09-02T09:42:44;227343.59;;;22.90
68440;BMP180;55421;51.600;5.718;2022-09-02T09:53:32;227490.59;;;23.20
68440;BMP180;55421;51.600;5.718;2022-09-02T09:56:06;227510.59;;;23.20
68440;BMP180;55421;51.600;5.718;2022-09-02T10:01:27;227670.20;;;23.50
68440;BMP180;55421;51.600;5.718;2022-09-02T10:04:08;227740.20;;;23.60
68440;BMP180;55421;51.600;5.718;2022-09-02T10:06:43;227807.80;;;23.76
68440;BMP180;55421;51.600;5.718;2022-09-02T10:14:39;228086.59;;;24.20
68440;BMP180;55421;51.600;5.718;2022-09-02T10:20:16;228233.59;;;24.50
68440;BMP180;55421;51.600;5.718;2022-09-02T10:23:13;228262.20;;;24.60
68440;BMP180;55421;51.600;5.718;2022-09-02T10:29:12;228367.59;;;24.74
68440;BMP180;55421;51.600;5.718;2022-09-02T10:35:20;228426.41;;;24.88
68440;BMP180;55421;51.600;5.718;2022-09-02T10:40:43;228455.41;;;24.90
68440;BMP180;55421;51.600;5.718;2022-09-02T10:46:24;228506.20;;;25.00
68440;BMP180;55421;51.600;5.718;2022-09-02T10:55:35;228623.80;;;25.20
68440;BMP180;55421;51.600;5.718;2022-09-02T11:01:06;228686.20;;;25.30
68440;BMP180;55421;51.600;5.718;2022-09-02T11:03:55;228737.41;;;25.40
68440;BMP180;55421;51.600;5.718;2022-09-02T11:06:29;228798.41;;;25.50
68440;BMP180;55421;51.600;5.718;2022-09-02T11:11:57;228829.59;;;25.60
68440;BMP180;55421;51.600;5.718;2022-09-02T11:15:05;228875.41;;;25.68
68440;BMP180;55421;51.600;5.718;2022-09-02T11:17:54;228939.80;;;25.74
68440;BMP180;55421;51.600;5.718;2022-09-02T11:23:24;229000.41;;;25.90
68440;BMP180;55421;51.600;5.718;2022-09-02T11:26:16;228938.59;;;25.74
68440;BMP180;55421;51.600;5.718;2022-09-02T11:29:19;228798.41;;;25.50
68440;BMP180;55421;51.600;5.718;2022-09-02T11:32:01;228669.41;;;25.30
68440;BMP180;55421;51.600;5.718;2022-09-02T11:37:07;228485.80;;;25.00
68440;BMP180;55421;51.600;5.718;2022-09-02T11:39:46;228453.80;;;24.90
68440;BMP180;55421;51.600;5.718;2022-09-02T11:48:55;228880.20;;;25.64
68440;BMP180;55421;51.600;5.718;2022-09-02T11:51:53;228971.59;;;25.80
68440;BMP180;55421;51.600;5.718;2022-09-02T11:54:31;229086.00;;;26.00
68440;BMP180;55421;51.600;5.718;2022-09-02T11:57:03;229159.59;;;26.12
68440;BMP180;55421;51.600;5.718;2022-09-02T12:02:43;229118.00;;;26.10
68440;BMP180;55421;51.600;5.718;2022-09-02T12:07:58;228934.00;;;25.70
68440;BMP180;55421;51.600;5.718;2022-09-02T12:21:27;229156.41;;;26.10
68440;BMP180;55421;51.600;5.718;2022-09-02T12:31:51;229384.00;;;26.50
68440;BMP180;55421;51.600;5.718;2022-09-02T12:36:55;229355.20;;;26.50
68440;BMP180;55421;51.600;5.718;2022-09-02T12:45:05;229336.80;;;26.48
68440;BMP180;55421;51.600;5.718;2022-09-02T12:47:57;229363.20;;;26.50
68440;BMP180;55421;51.600;5.718;2022-09-02T12:50:28;229364.80;;;26.50
68440;BMP180;55421;51.600;5.718;2022-09-02T12:56:04;229343.20;;;26.50
68440;BMP180;55421;51.600;5.718;2022-09-02T12:58:36;229327.80;;;26.42
68440;BMP180;55421;51.600;5.718;2022-09-02T13:07:11;229353.59;;;26.50
68440;BMP180;55421;51.600;5.718;2022-09-02T13:29:56;229284.59;;;26.40
68440;BMP180;55421;51.600;5.718;2022-09-02T13:32:31;229247.41;;;26.30
68440;BMP180;55421;51.600;5.718;2022-09-02T13:35:15;229174.00;;;26.20
68440;BMP180;55421;51.600;5.718;2022-09-02T13:37:43;229161.20;;;26.18
68440;BMP180;55421;51.600;5.718;2022-09-02T13:40:31;229183.59;;;26.20
68440;BMP180;55421;51.600;5.718;2022-09-02T13:43:18;229202.80;;;26.20
68440;BMP180;55421;51.600;5.718;2022-09-02T13:45:47;229188.00;;;26.20
68440;BMP180;55421;51.600;5.718;2022-09-02T13:48:20;229162.80;;;26.16
68440;BMP180;55421;51.600;5.718;2022-09-02T13:50:51;229167.59;;;26.18
68440;BMP180;55421;51.600;5.718;2022-09-02T13:53:33;229158.00;;;26.10
68440;BMP180;55421;51.600;5.718;2022-09-02T13:56:01;229158.00;;;26.10
68440;BMP180;55421;51.600;5.718;2022-09-02T14:01:16;229161.20;;;26.10
68440;BMP180;55421;51.600;5.718;2022-09-02T14:03:52;229183.59;;;26.20
68440;BMP180;55421;51.600;5.718;2022-09-02T14:06:33;229216.80;;;26.20
68440;BMP180;55421;51.600;5.718;2022-09-02T14:09:06;229259.41;;;26.30
68440;BMP180;55421;51.600;5.718;2022-09-02T14:11:41;229289.41;;;26.40
68440;BMP180;55421;51.600;5.718;2022-09-02T14:14:18;229294.59;;;26.40
68440;BMP180;55421;51.600;5.718;2022-09-02T14:16:47;229294.20;;;26.40
68440;BMP180;55421;51.600;5.718;2022-09-02T14:21:52;229285.80;;;26.40
68440;BMP180;55421;51.600;5.718;2022-09-02T14:24:25;229262.20;;;26.30
68440;BMP180;55421;51.600;5.718;2022-09-02T14:26:55;229240.80;;;26.30
68440;BMP180;55421;51.600;5.718;2022-09-02T14:29:23;229211.59;;;26.20
68440;BMP180;55421;51.600;5.718;2022-09-02T14:32:14;229205.59;;;26.20
68440;BMP180;55421;51.600;5.718;2022-09-02T14:34:47;229223.59;;;26.30
68440;BMP180;55421;51.600;5.718;2022-09-02T14:37:23;229216.00;;;26.20
68440;BMP180;55421;51.600;5.718;2022-09-02T14:40:10;229191.20;;;26.20
68440;BMP180;55421;51.600;5.718;2022-09-02T14:42:51;229185.20;;;26.20
68440;BMP180;55421;51.600;5.718;2022-09-02T14:45:29;229167.59;;;26.14
68440;BMP180;55421;51.600;5.718;2022-09-02T14:48:00;229124.41;;;26.10
68440;BMP180;55421;51.600;5.718;2022-09-02T14:50:31;229062.80;;;26.00
68440;BMP180;55421;51.600;5.718;2022-09-02T14:53:08;229021.20;;;25.90
68440;BMP180;55421;51.600;5.718;2022-09-02T14:58:16;229000.41;;;25.90
68440;BMP180;55421;51.600;5.718;2022-09-02T15:00:46;229002.00;;;25.90
68440;BMP180;55421;51.600;5.718;2022-09-02T15:03:14;228987.59;;;25.82
68440;BMP180;55421;51.600;5.718;2022-09-02T15:05:42;228973.20;;;25.80
68440;BMP180;55421;51.600;5.718;2022-09-02T15:08:10;228960.41;;;25.80
68440;BMP180;55421;51.600;5.718;2022-09-02T15:10:39;228940.00;;;25.74
68440;BMP180;55421;51.600;5.718;2022-09-02T15:13:09;228932.41;;;25.70
68440;BMP180;55421;51.600;5.718;2022-09-02T15:15:38;228947.59;;;25.78
68440;BMP180;55421;51.600;5.718;2022-09-02T15:18:05;228979.59;;;25.80
68440;BMP180;55421;51.600;5.718;2022-09-02T15:20:32;229003.59;;;25.90
68440;BMP180;55421;51.600;5.718;2022-09-02T15:22:59;229024.41;;;25.90
68440;BMP180;55421;51.600;5.718;2022-09-02T15:25:25;229043.59;;;25.90
68440;BMP180;55421;51.600;5.718;2022-09-02T15:27:52;229059.59;;;26.00
68440;BMP180;55421;51.600;5.718;2022-09-02T15:30:18;229073.41;;;26.00
68440;BMP180;55421;51.600;5.718;2022-09-02T15:32:44;229086.00;;;26.00
68440;BMP180;55421;51.600;5.718;2022-09-02T15:35:11;229068.59;;;26.00
68440;BMP180;55421;51.600;5.718;2022-09-02T15:37:37;229061.20;;;26.00
68440;BMP180;55421;51.600;5.718;2022-09-02T15:40:06;229050.00;;;26.00
68440;BMP180;55421;51.600;5.718;2022-09-02T15:42:37;229043.59;;;25.90
68440;BMP180;55421;51.600;5.718;2022-09-02T15:45:07;229040.41;;;25.90
68440;BMP180;55421;51.600;5.718;2022-09-02T15:47:35;229035.59;;;25.90
68440;BMP180;55421;51.600;5.718;2022-09-02T15:50:04;229024.41;;;25.90
68440;BMP180;55421;51.600;5.718;2022-09-02T15:52:34;229014.80;;;25.90
68440;BMP180;55421;51.600;5.718;2022-09-02T15:55:00;229006.80;;;25.90
68440;BMP180;55421;51.600;5.718;2022-09-02T15:57:27;228997.20;;;25.90
68440;BMP180;55421;51.600;5.718;2022-09-02T15:59:55;228986.00;;;25.84
68440;BMP180;55421;51.600;5.718;2022-09-02T16:02:23;228978.00;;;25.80
68440;BMP180;55421;51.600;5.718;2022-09-02T16:04:49;228962.00;;;25.80
68440;BMP180;55421;51.600;5.718;2022-09-02T16:07:16;228949.20;;;25.80
68440;BMP180;55421;51.600;5.718;2022-09-02T16:09:42;228944.59;;;25.80
68440;BMP180;55421;51.600;5.718;2022-09-02T16:12:08;228932.41;;;25.72
68440;BMP180;55421;51.600;5.718;2022-09-02T16:14:36;228927.80;;;25.70
68440;BMP180;55421;51.600;5.718;2022-09-02T16:17:02;228908.59;;;25.70
68440;BMP180;55421;51.600;5.718;2022-09-02T16:19:29;228891.41;;;25.70
68440;BMP180;55421;51.600;5.718;2022-09-02T16:21:56;228873.80;;;25.64
68440;BMP180;55421;51.600;5.718;2022-09-02T16:24:22;228872.20;;;25.60
68440;BMP180;55421;51.600;5.718;2022-09-02T16:26:50;228857.80;;;25.60
68440;BMP180;55421;51.600;5.718;2022-09-02T16:29:17;228849.80;;;25.60
68440;BMP180;55421;51.600;5.718;2022-09-02T16:31:47;228837.00;;;25.60
68440;BMP180;55421;51.600;5.718;2022-09-02T16:34:16;228806.41;;;25.50
68440;BMP180;55421;51.600;5.718;2022-09-02T16:36:46;228784.00;;;25.50